sensor_id;sensor_type;location;lat;lon;timestamp;P1;durP1;ratioP1;P2;durP2;ratioP2
3343;SDS011;1685;53.104;8.228;2023-08-31T00:01:09;6.40;;;4.20;;
3343;SDS011;1685;53.104;8.228;2023-08-31T00:03:35;6.10;;;4.10;;
3343;SDS011;1685;53.104;8.228;2023-08-31T00:06:03;7.83;;;5.10;;
3343;SDS011;1685;53.104;8.228;2023-08-31T00:08:32;4.00;;;3.70;;
3343;SDS011;1685;53.104;8.228;2023-08-31T00:11:00;5.20;;;4.57;;
3343;SDS011;1685;53.104;8.228;2023-08-31T00:13:27;7.13;;;4.60;;
3343;SDS011;1685;53.104;8.228;2023-08-31T00:15:54;11.40;;;5.10;;
3343;SDS011;1685;53.104;8.228;2023-08-31T00:18:23;6.53;;;5.00;;
3343;SDS011;1685;53.104;8.228;2023-08-31T00:20:51;4.97;;;4.30;;
3343;SDS011;1685;53.104;8.228;2023-08-31T00:23:18;4.40;;;4.00;;
3343;SDS011;1685;53.104;8.228;2023-08-31T00:25:45;8.10;;;5.37;;
3343;SDS011;1685;53.104;8.228;2023-08-31T00:28:13;9.47;;;4.40;;
3343;SDS011;1685;53.104;8.228;2023-08-31T00:30:40;7.57;;;4.37;;
3343;SDS011;1685;53.104;8.228;2023-08-31T00:33:09;6.13;;;4.03;;
3343;SDS011;1685;53.104;8.228;2023-08-31T00:35:38;8.17;;;4.37;;
3343;SDS011;1685;53.104;8.228;2023-08-31T00:38:08;8.20;;;4.40;;
3343;SDS011;1685;53.104;8.228;2023-08-31T00:40:38;8.20;;;4.50;;
3343;SDS011;1685;53.104;8.228;2023-08-31T00:43:06;10.80;;;4.87;;
3343;SDS011;1685;53.104;8.228;2023-08-31T00:45:33;7.77;;;4.57;;
3343;SDS011;1685;53.104;8.228;2023-08-31T00:48:00;9.47;;;4.23;;
3343;SDS011;1685;53.104;8.228;2023-08-31T00:50:28;7.73;;;5.70;;
3343;SDS011;1685;53.104;8.228;2023-08-31T00:52:56;6.83;;;4.90;;
3343;SDS011;1685;53.104;8.228;2023-08-31T00:55:23;10.03;;;5.00;;
3343;SDS011;1685;53.104;8.228;2023-08-31T00:57:51;7.13;;;5.60;;
3343;SDS011;1685;53.104;8.228;2023-08-31T01:00:20;7.63;;;5.27;;
3343;SDS011;1685;53.104;8.228;2023-08-31T01:02:50;12.73;;;6.40;;
3343;SDS011;1685;53.104;8.228;2023-08-31T01:05:33;6.27;;;4.90;;
3343;SDS011;1685;53.104;8.228;2023-08-31T01:08:11;6.40;;;4.90;;
3343;SDS011;1685;53.104;8.228;2023-08-31T01:10:47;9.93;;;4.77;;
3343;SDS011;1685;53.104;8.228;2023-08-31T01:13:24;8.80;;;5.97;;
3343;SDS011;1685;53.104;8.228;2023-08-31T01:15:52;13.20;;;5.33;;
3343;SDS011;1685;53.104;8.228;2023-08-31T01:18:23;7.83;;;5.80;;
3343;SDS011;1685;53.104;8.228;2023-08-31T01:20:52;8.03;;;4.80;;
3343;SDS011;1685;53.104;8.228;2023-08-31T01:23:29;8.60;;;4.80;;
3343;SDS011;1685;53.104;8.228;2023-08-31T01:26:05;7.73;;;4.80;;
3343;SDS011;1685;53.104;8.228;2023-08-31T01:28:32;13.40;;;5.10;;
3343;SDS011;1685;53.104;8.228;2023-08-31T01:31:03;12.73;;;5.00;;
3343;SDS011;1685;53.104;8.228;2023-08-31T01:33:30;7.37;;;5.20;;
3343;SDS011;1685;53.104;8.228;2023-08-31T01:35:57;13.53;;;6.03;;
3343;SDS011;1685;53.104;8.228;2023-08-31T01:38:27;10.20;;;6.30;;
3343;SDS011;1685;53.104;8.228;2023-08-31T01:40:58;8.50;;;5.00;;
3343;SDS011;1685;53.104;8.228;2023-08-31T01:43:30;7.70;;;4.50;;
3343;SDS011;1685;53.104;8.228;2023-08-31T01:45:58;13.50;;;5.77;;
3343;SDS011;1685;53.104;8.228;2023-08-31T01:48:26;6.30;;;4.90;;
3343;SDS011;1685;53.104;8.228;2023-08-31T01:50:53;15.50;;;5.60;;
3343;SDS011;1685;53.104;8.228;2023-08-31T01:53:20;7.60;;;5.33;;
3343;SDS011;1685;53.104;8.228;2023-08-31T01:55:47;6.80;;;5.20;;
3343;SDS011;1685;53.104;8.228;2023-08-31T01:58:14;7.60;;;4.93;;
3343;SDS011;1685;53.104;8.228;2023-08-31T02:00:43;9.17;;;5.03;;
3343;SDS011;1685;53.104;8.228;2023-08-31T02:03:09;14.70;;;5.77;;
3343;SDS011;1685;53.104;8.228;2023-08-31T02:05:37;9.17;;;4.70;;
3343;SDS011;1685;53.104;8.228;2023-08-31T02:08:04;5.30;;;4.90;;
3343;SDS011;1685;53.104;8.228;2023-08-31T02:10:31;7.30;;;4.97;;
3343;SDS011;1685;53.104;8.228;2023-08-31T02:12:59;8.27;;;5.37;;
3343;SDS011;1685;53.104;8.228;2023-08-31T02:15:26;6.27;;;4.73;;
3343;SDS011;1685;53.104;8.228;2023-08-31T02:17:56;8.10;;;5.10;;
3343;SDS011;1685;53.104;8.228;2023-08-31T02:20:22;6.80;;;5.30;;
3343;SDS011;1685;53.104;8.228;2023-08-31T02:22:49;12.13;;;5.87;;
3343;SDS011;1685;53.104;8.228;2023-08-31T02:25:16;4.60;;;4.20;;
3343;SDS011;1685;53.104;8.228;2023-08-31T02:27:43;11.87;;;5.60;;
3343;SDS011;1685;53.104;8.228;2023-08-31T02:30:11;8.70;;;4.60;;
3343;SDS011;1685;53.104;8.228;2023-08-31T02:32:38;11.37;;;5.63;;
3343;SDS011;1685;53.104;8.228;2023-08-31T02:35:06;14.73;;;5.17;;
3343;SDS011;1685;53.104;8.228;2023-08-31T02:37:33;6.47;;;4.23;;
3343;SDS011;1685;53.104;8.228;2023-08-31T02:40:00;5.83;;;4.30;;
3343;SDS011;1685;53.104;8.228;2023-08-31T02:42:28;10.77;;;4.90;;
3343;SDS011;1685;53.104;8.228;2023-08-31T02:44:55;13.67;;;4.73;;
3343;SDS011;1685;53.104;8.228;2023-08-31T02:47:22;9.37;;;5.10;;
3343;SDS011;1685;53.104;8.228;2023-08-31T02:49:49;6.80;;;5.10;;
3343;SDS011;1685;53.104;8.228;2023-08-31T02:52:17;10.10;;;5.00;;
3343;SDS011;1685;53.104;8.228;2023-08-31T02:54:44;7.57;;;4.50;;
3343;SDS011;1685;53.104;8.228;2023-08-31T02:57:11;7.43;;;4.73;;
3343;SDS011;1685;53.104;8.228;2023-08-31T02:59:40;8.13;;;5.30;;
3343;SDS011;1685;53.104;8.228;2023-08-31T03:02:07;8.97;;;4.93;;
3343;SDS011;1685;53.104;8.228;2023-08-31T03:04:35;10.70;;;5.40;;
3343;SDS011;1685;53.104;8.228;2023-08-31T03:07:03;12.47;;;5.50;;
3343;SDS011;1685;53.104;8.228;2023-08-31T03:09:32;12.23;;;4.97;;
3343;SDS011;1685;53.104;8.228;2023-08-31T03:11:58;5.70;;;5.03;;
3343;SDS011;1685;53.104;8.228;2023-08-31T03:14:25;8.67;;;5.10;;
3343;SDS011;1685;53.104;8.228;2023-08-31T03:16:52;11.73;;;5.80;;
3343;SDS011;1685;53.104;8.228;2023-08-31T03:19:19;9.00;;;5.40;;
3343;SDS011;1685;53.104;8.228;2023-08-31T03:21:46;10.80;;;5.27;;
3343;SDS011;1685;53.104;8.228;2023-08-31T03:24:14;16.10;;;5.00;;
3343;SDS011;1685;53.104;8.228;2023-08-31T03:26:42;5.03;;;4.47;;
3343;SDS011;1685;53.104;8.228;2023-08-31T03:29:09;16.03;;;4.50;;
3343;SDS011;1685;53.104;8.228;2023-08-31T03:31:36;12.13;;;5.10;;
3343;SDS011;1685;53.104;8.228;2023-08-31T03:34:03;10.40;;;5.13;;
3343;SDS011;1685;53.104;8.228;2023-08-31T03:36:30;11.70;;;6.00;;
3343;SDS011;1685;53.104;8.228;2023-08-31T03:38:57;11.43;;;6.30;;
3343;SDS011;1685;53.104;8.228;2023-08-31T03:41:24;9.03;;;5.60;;
3343;SDS011;1685;53.104;8.228;2023-08-31T03:43:52;9.40;;;5.67;;
3343;SDS011;1685;53.104;8.228;2023-08-31T03:46:19;11.07;;;5.17;;
3343;SDS011;1685;53.104;8.228;2023-08-31T03:48:46;13.20;;;6.00;;
3343;SDS011;1685;53.104;8.228;2023-08-31T03:51:13;12.53;;;5.83;;
3343;SDS011;1685;53.104;8.228;2023-08-31T03:53:40;9.13;;;6.47;;
3343;SDS011;1685;53.104;8.228;2023-08-31T03:56:09;9.30;;;5.87;;
3343;SDS011;1685;53.104;8.228;2023-08-31T03:58:36;12.60;;;6.40;;
3343;SDS011;1685;53.104;8.228;2023-08-31T04:01:04;8.97;;;6.60;;
3343;SDS011;1685;53.104;8.228;2023-08-31T04:03:31;9.10;;;7.00;;
3343;SDS011;1685;53.104;8.228;2023-08-31T04:05:58;9.53;;;6.20;;
3343;SDS011;1685;53.104;8.228;2023-08-31T04:08:25;13.67;;;7.10;;
3343;SDS011;1685;53.104;8.228;2023-08-31T04:10:52;11.37;;;6.90;;
3343;SDS011;1685;53.104;8.228;2023-08-31T04:13:19;11.57;;;7.67;;
3343;SDS011;1685;53.104;8.228;2023-08-31T04:15:46;15.33;;;8.10;;
3343;SDS011;1685;53.104;8.228;2023-08-31T04:18:15;15.10;;;8.07;;
3343;SDS011;1685;53.104;8.228;2023-08-31T04:20:47;12.07;;;8.03;;
3343;SDS011;1685;53.104;8.228;2023-08-31T04:23:16;18.43;;;9.40;;
3343;SDS011;1685;53.104;8.228;2023-08-31T04:25:43;11.67;;;7.50;;
3343;SDS011;1685;53.104;8.228;2023-08-31T04:28:10;13.40;;;7.63;;
3343;SDS011;1685;53.104;8.228;2023-08-31T04:30:37;12.63;;;8.90;;
3343;SDS011;1685;53.104;8.228;2023-08-31T04:33:04;12.37;;;8.90;;
3343;SDS011;1685;53.104;8.228;2023-08-31T04:35:32;16.70;;;7.60;;
3343;SDS011;1685;53.104;8.228;2023-08-31T04:37:59;14.27;;;9.33;;
3343;SDS011;1685;53.104;8.228;2023-08-31T04:40:27;14.10;;;9.93;;
3343;SDS011;1685;53.104;8.228;2023-08-31T04:42:54;13.83;;;9.40;;
3343;SDS011;1685;53.104;8.228;2023-08-31T04:45:21;22.20;;;9.67;;
3343;SDS011;1685;53.104;8.228;2023-08-31T04:47:48;11.23;;;9.43;;
3343;SDS011;1685;53.104;8.228;2023-08-31T04:50:16;11.90;;;9.00;;
3343;SDS011;1685;53.104;8.228;2023-08-31T04:52:45;11.67;;;9.60;;
3343;SDS011;1685;53.104;8.228;2023-08-31T04:55:12;17.73;;;10.80;;
3343;SDS011;1685;53.104;8.228;2023-08-31T04:57:39;18.23;;;10.43;;
3343;SDS011;1685;53.104;8.228;2023-08-31T05:00:07;15.77;;;10.17;;
3343;SDS011;1685;53.104;8.228;2023-08-31T05:02:35;17.13;;;11.37;;
3343;SDS011;1685;53.104;8.228;2023-08-31T05:05:02;14.00;;;10.33;;
3343;SDS011;1685;53.104;8.228;2023-08-31T05:07:30;17.90;;;9.70;;
3343;SDS011;1685;53.104;8.228;2023-08-31T05:09:58;18.23;;;11.00;;
3343;SDS011;1685;53.104;8.228;2023-08-31T05:12:25;17.17;;;10.70;;
3343;SDS011;1685;53.104;8.228;2023-08-31T05:14:52;15.23;;;11.10;;
3343;SDS011;1685;53.104;8.228;2023-08-31T05:17:19;16.80;;;11.80;;
3343;SDS011;1685;53.104;8.228;2023-08-31T05:19:46;13.80;;;10.97;;
3343;SDS011;1685;53.104;8.228;2023-08-31T05:22:13;15.77;;;11.00;;
3343;SDS011;1685;53.104;8.228;2023-08-31T05:24:40;18.70;;;11.70;;
3343;SDS011;1685;53.104;8.228;2023-08-31T05:27:09;15.03;;;10.73;;
3343;SDS011;1685;53.104;8.228;2023-08-31T05:29:35;18.70;;;11.23;;
3343;SDS011;1685;53.104;8.228;2023-08-31T05:32:03;15.20;;;10.90;;
3343;SDS011;1685;53.104;8.228;2023-08-31T05:34:30;19.03;;;11.67;;
3343;SDS011;1685;53.104;8.228;2023-08-31T05:37:02;16.53;;;12.30;;
3343;SDS011;1685;53.104;8.228;2023-08-31T05:39:29;14.00;;;9.97;;
3343;SDS011;1685;53.104;8.228;2023-08-31T05:41:57;15.67;;;11.30;;
3343;SDS011;1685;53.104;8.228;2023-08-31T05:44:25;16.97;;;12.27;;
3343;SDS011;1685;53.104;8.228;2023-08-31T05:46:52;21.37;;;10.80;;
3343;SDS011;1685;53.104;8.228;2023-08-31T05:49:19;21.83;;;11.47;;
3343;SDS011;1685;53.104;8.228;2023-08-31T05:51:46;19.23;;;12.13;;
3343;SDS011;1685;53.104;8.228;2023-08-31T05:54:13;14.47;;;11.07;;
3343;SDS011;1685;53.104;8.228;2023-08-31T05:56:40;16.30;;;11.40;;
3343;SDS011;1685;53.104;8.228;2023-08-31T05:59:07;15.50;;;10.97;;
3343;SDS011;1685;53.104;8.228;2023-08-31T06:01:35;14.20;;;10.90;;
3343;SDS011;1685;53.104;8.228;2023-08-31T06:04:02;17.67;;;10.90;;
3343;SDS011;1685;53.104;8.228;2023-08-31T06:06:30;18.20;;;11.90;;
3343;SDS011;1685;53.104;8.228;2023-08-31T06:08:58;12.97;;;11.17;;
3343;SDS011;1685;53.104;8.228;2023-08-31T06:11:25;15.40;;;11.93;;
3343;SDS011;1685;53.104;8.228;2023-08-31T06:13:52;15.77;;;12.40;;
3343;SDS011;1685;53.104;8.228;2023-08-31T06:16:19;15.93;;;11.53;;
3343;SDS011;1685;53.104;8.228;2023-08-31T06:18:49;17.63;;;11.00;;
3343;SDS011;1685;53.104;8.228;2023-08-31T06:21:16;20.27;;;10.97;;
3343;SDS011;1685;53.104;8.228;2023-08-31T06:23:43;14.37;;;9.90;;
3343;SDS011;1685;53.104;8.228;2023-08-31T06:26:10;18.40;;;10.93;;
3343;SDS011;1685;53.104;8.228;2023-08-31T06:28:37;13.63;;;11.30;;
3343;SDS011;1685;53.104;8.228;2023-08-31T06:31:04;12.60;;;11.03;;
3343;SDS011;1685;53.104;8.228;2023-08-31T06:33:31;19.00;;;11.67;;
3343;SDS011;1685;53.104;8.228;2023-08-31T06:36:00;18.33;;;11.20;;
3343;SDS011;1685;53.104;8.228;2023-08-31T06:38:27;16.67;;;12.17;;
3343;SDS011;1685;53.104;8.228;2023-08-31T06:40:54;13.60;;;10.77;;
3343;SDS011;1685;53.104;8.228;2023-08-31T06:43:24;13.27;;;11.10;;
3343;SDS011;1685;53.104;8.228;2023-08-31T06:45:51;14.50;;;10.33;;
3343;SDS011;1685;53.104;8.228;2023-08-31T06:48:18;11.77;;;10.47;;
3343;SDS011;1685;53.104;8.228;2023-08-31T06:50:46;11.63;;;10.20;;
3343;SDS011;1685;53.104;8.228;2023-08-31T06:53:14;11.27;;;8.70;;
3343;SDS011;1685;53.104;8.228;2023-08-31T06:55:41;14.70;;;10.10;;
3343;SDS011;1685;53.104;8.228;2023-08-31T06:58:09;10.90;;;9.80;;
3343;SDS011;1685;53.104;8.228;2023-08-31T07:00:36;15.90;;;10.37;;
3343;SDS011;1685;53.104;8.228;2023-08-31T07:03:03;13.50;;;9.60;;
3343;SDS011;1685;53.104;8.228;2023-08-31T07:05:32;11.87;;;10.67;;
3343;SDS011;1685;53.104;8.228;2023-08-31T07:08:01;11.53;;;10.33;;
3343;SDS011;1685;53.104;8.228;2023-08-31T07:10:30;11.80;;;10.60;;
3343;SDS011;1685;53.104;8.228;2023-08-31T07:12:56;11.20;;;10.00;;
3343;SDS011;1685;53.104;8.228;2023-08-31T07:15:23;10.40;;;9.40;;
3343;SDS011;1685;53.104;8.228;2023-08-31T07:17:50;12.30;;;10.20;;
3343;SDS011;1685;53.104;8.228;2023-08-31T07:20:17;11.47;;;9.33;;
3343;SDS011;1685;53.104;8.228;2023-08-31T07:22:44;13.17;;;9.90;;
3343;SDS011;1685;53.104;8.228;2023-08-31T07:25:11;12.20;;;10.00;;
3343;SDS011;1685;53.104;8.228;2023-08-31T07:27:40;14.10;;;9.83;;
3343;SDS011;1685;53.104;8.228;2023-08-31T07:30:07;10.83;;;9.80;;
3343;SDS011;1685;53.104;8.228;2023-08-31T07:32:35;18.53;;;9.70;;
3343;SDS011;1685;53.104;8.228;2023-08-31T07:35:02;16.93;;;9.67;;
3343;SDS011;1685;53.104;8.228;2023-08-31T07:37:30;18.43;;;9.97;;
3343;SDS011;1685;53.104;8.228;2023-08-31T07:39:57;12.53;;;9.00;;
3343;SDS011;1685;53.104;8.228;2023-08-31T07:42:24;12.30;;;9.50;;
3343;SDS011;1685;53.104;8.228;2023-08-31T07:44:53;12.17;;;9.37;;
3343;SDS011;1685;53.104;8.228;2023-08-31T07:47:19;17.53;;;9.20;;
3343;SDS011;1685;53.104;8.228;2023-08-31T07:49:46;13.13;;;8.53;;
3343;SDS011;1685;53.104;8.228;2023-08-31T07:52:13;9.27;;;8.47;;
3343;SDS011;1685;53.104;8.228;2023-08-31T07:54:41;9.13;;;8.23;;
3343;SDS011;1685;53.104;8.228;2023-08-31T07:57:08;9.13;;;8.07;;
3343;SDS011;1685;53.104;8.228;2023-08-31T07:59:35;10.07;;;7.30;;
3343;SDS011;1685;53.104;8.228;2023-08-31T08:02:05;7.93;;;7.13;;
3343;SDS011;1685;53.104;8.228;2023-08-31T08:04:32;11.60;;;7.50;;
3343;SDS011;1685;53.104;8.228;2023-08-31T08:06:59;10.50;;;7.83;;
3343;SDS011;1685;53.104;8.228;2023-08-31T08:09:28;9.47;;;8.30;;
3343;SDS011;1685;53.104;8.228;2023-08-31T08:11:55;8.67;;;7.03;;
3343;SDS011;1685;53.104;8.228;2023-08-31T08:14:23;11.87;;;8.00;;
3343;SDS011;1685;53.104;8.228;2023-08-31T08:16:50;9.47;;;6.37;;
3343;SDS011;1685;53.104;8.228;2023-08-31T08:19:22;9.03;;;6.83;;
3343;SDS011;1685;53.104;8.228;2023-08-31T08:21:49;8.60;;;6.67;;
3343;SDS011;1685;53.104;8.228;2023-08-31T08:24:16;9.90;;;6.33;;
3343;SDS011;1685;53.104;8.228;2023-08-31T08:26:43;12.80;;;6.93;;
3343;SDS011;1685;53.104;8.228;2023-08-31T08:29:10;6.70;;;6.10;;
3343;SDS011;1685;53.104;8.228;2023-08-31T08:31:37;9.90;;;6.70;;
3343;SDS011;1685;53.104;8.228;2023-08-31T08:34:04;6.80;;;6.17;;
3343;SDS011;1685;53.104;8.228;2023-08-31T08:36:32;5.60;;;5.10;;
3343;SDS011;1685;53.104;8.228;2023-08-31T08:38:59;10.57;;;5.73;;
3343;SDS011;1685;53.104;8.228;2023-08-31T08:41:27;8.97;;;5.73;;
3343;SDS011;1685;53.104;8.228;2023-08-31T08:43:55;6.63;;;5.20;;
3343;SDS011;1685;53.104;8.228;2023-08-31T08:46:28;7.70;;;4.80;;
3343;SDS011;1685;53.104;8.228;2023-08-31T08:48:57;7.60;;;5.23;;
3343;SDS011;1685;53.104;8.228;2023-08-31T08:51:26;7.13;;;4.63;;
3343;SDS011;1685;53.104;8.228;2023-08-31T08:53:55;8.97;;;5.57;;
3343;SDS011;1685;53.104;8.228;2023-08-31T08:56:24;12.93;;;5.27;;
3343;SDS011;1685;53.104;8.228;2023-08-31T08:58:51;8.70;;;5.53;;
3343;SDS011;1685;53.104;8.228;2023-08-31T09:01:18;6.50;;;4.70;;
3343;SDS011;1685;53.104;8.228;2023-08-31T09:03:47;5.40;;;4.90;;
3343;SDS011;1685;53.104;8.228;2023-08-31T09:06:15;5.90;;;4.80;;
3343;SDS011;1685;53.104;8.228;2023-08-31T09:08:42;10.37;;;4.70;;
3343;SDS011;1685;53.104;8.228;2023-08-31T09:11:11;4.60;;;4.20;;
3343;SDS011;1685;53.104;8.228;2023-08-31T09:13:47;9.17;;;4.30;;
3343;SDS011;1685;53.104;8.228;2023-08-31T09:16:22;5.40;;;3.90;;
3343;SDS011;1685;53.104;8.228;2023-08-31T09:18:51;4.70;;;3.20;;
3343;SDS011;1685;53.104;8.228;2023-08-31T09:21:18;2.90;;;2.37;;
3343;SDS011;1685;53.104;8.228;2023-08-31T09:23:47;3.20;;;2.87;;
3343;SDS011;1685;53.104;8.228;2023-08-31T09:26:22;3.97;;;2.37;;
3343;SDS011;1685;53.104;8.228;2023-08-31T09:28:49;5.43;;;2.43;;
3343;SDS011;1685;53.104;8.228;2023-08-31T09:31:16;4.53;;;2.00;;
3343;SDS011;1685;53.104;8.228;2023-08-31T09:33:49;2.17;;;2.07;;
3343;SDS011;1685;53.104;8.228;2023-08-31T09:36:17;2.87;;;1.43;;
3343;SDS011;1685;53.104;8.228;2023-08-31T09:38:44;3.83;;;1.70;;
3343;SDS011;1685;53.104;8.228;2023-08-31T09:41:11;1.80;;;1.70;;
3343;SDS011;1685;53.104;8.228;2023-08-31T09:43:41;2.10;;;1.80;;
3343;SDS011;1685;53.104;8.228;2023-08-31T09:46:08;4.00;;;1.63;;
3343;SDS011;1685;53.104;8.228;2023-08-31T09:48:36;3.80;;;1.67;;
3343;SDS011;1685;53.104;8.228;2023-08-31T09:51:05;3.43;;;1.30;;
3343;SDS011;1685;53.104;8.228;2023-08-31T09:53:32;3.23;;;1.00;;
3343;SDS011;1685;53.104;8.228;2023-08-31T09:56:04;3.17;;;1.23;;
3343;SDS011;1685;53.104;8.228;2023-08-31T09:58:31;3.53;;;1.50;;
3343;SDS011;1685;53.104;8.228;2023-08-31T10:01:00;3.00;;;1.50;;
3343;SDS011;1685;53.104;8.228;2023-08-31T10:03:28;6.20;;;3.90;;
3343;SDS011;1685;53.104;8.228;2023-08-31T10:05:55;2.47;;;1.53;;
3343;SDS011;1685;53.104;8.228;2023-08-31T10:08:22;3.93;;;1.87;;
3343;SDS011;1685;53.104;8.228;2023-08-31T10:10:51;3.40;;;1.83;;
3343;SDS011;1685;53.104;8.228;2023-08-31T10:13:18;4.60;;;1.60;;
3343;SDS011;1685;53.104;8.228;2023-08-31T10:15:47;7.60;;;2.27;;
3343;SDS011;1685;53.104;8.228;2023-08-31T10:18:17;4.83;;;1.73;;
3343;SDS011;1685;53.104;8.228;2023-08-31T10:20:44;6.97;;;1.57;;
3343;SDS011;1685;53.104;8.228;2023-08-31T10:23:11;4.93;;;1.83;;
3343;SDS011;1685;53.104;8.228;2023-08-31T10:28:26;5.80;;;1.20;;
3343;SDS011;1685;53.104;8.228;2023-08-31T10:31:00;1.40;;;1.30;;
3343;SDS011;1685;53.104;8.228;2023-08-31T10:33:30;2.30;;;1.00;;
3343;SDS011;1685;53.104;8.228;2023-08-31T10:35:57;3.83;;;1.00;;
3343;SDS011;1685;53.104;8.228;2023-08-31T10:38:25;1.87;;;1.03;;
3343;SDS011;1685;53.104;8.228;2023-08-31T10:43:46;1.80;;;0.90;;
3343;SDS011;1685;53.104;8.228;2023-08-31T10:46:15;1.47;;;1.10;;
3343;SDS011;1685;53.104;8.228;2023-08-31T10:48:50;2.70;;;1.90;;
3343;SDS011;1685;53.104;8.228;2023-08-31T10:51:17;2.40;;;0.90;;
3343;SDS011;1685;53.104;8.228;2023-08-31T10:53:45;2.83;;;1.30;;
3343;SDS011;1685;53.104;8.228;2023-08-31T10:56:12;2.27;;;1.03;;
3343;SDS011;1685;53.104;8.228;2023-08-31T10:58:39;3.60;;;1.13;;
3343;SDS011;1685;53.104;8.228;2023-08-31T11:01:06;2.53;;;1.00;;
3343;SDS011;1685;53.104;8.228;2023-08-31T11:03:38;1.13;;;0.80;;
3343;SDS011;1685;53.104;8.228;2023-08-31T11:06:24;4.73;;;1.23;;
3343;SDS011;1685;53.104;8.228;2023-08-31T11:08:55;1.00;;;0.80;;
3343;SDS011;1685;53.104;8.228;2023-08-31T11:11:22;1.23;;;0.80;;
3343;SDS011;1685;53.104;8.228;2023-08-31T11:13:56;1.20;;;1.10;;
3343;SDS011;1685;53.104;8.228;2023-08-31T11:16:23;2.00;;;0.90;;
3343;SDS011;1685;53.104;8.228;2023-08-31T11:18:50;3.63;;;1.10;;
3343;SDS011;1685;53.104;8.228;2023-08-31T11:21:19;5.47;;;1.00;;
3343;SDS011;1685;53.104;8.228;2023-08-31T11:23:47;2.93;;;0.97;;
3343;SDS011;1685;53.104;8.228;2023-08-31T11:26:14;2.07;;;0.93;;
3343;SDS011;1685;53.104;8.228;2023-08-31T11:28:43;2.40;;;0.93;;
3343;SDS011;1685;53.104;8.228;2023-08-31T11:31:11;3.13;;;1.10;;
3343;SDS011;1685;53.104;8.228;2023-08-31T11:33:38;4.10;;;1.27;;
3343;SDS011;1685;53.104;8.228;2023-08-31T11:36:06;4.53;;;1.83;;
3343;SDS011;1685;53.104;8.228;2023-08-31T11:38:35;4.40;;;1.63;;
3343;SDS011;1685;53.104;8.228;2023-08-31T11:41:02;1.33;;;1.00;;
3343;SDS011;1685;53.104;8.228;2023-08-31T11:43:29;1.13;;;1.03;;
3343;SDS011;1685;53.104;8.228;2023-08-31T11:45:56;1.67;;;1.20;;
3343;SDS011;1685;53.104;8.228;2023-08-31T11:48:24;5.63;;;1.40;;
3343;SDS011;1685;53.104;8.228;2023-08-31T11:50:52;8.63;;;2.47;;
3343;SDS011;1685;53.104;8.228;2023-08-31T11:53:19;2.80;;;1.40;;
3343;SDS011;1685;53.104;8.228;2023-08-31T11:55:50;3.20;;;1.30;;
3343;SDS011;1685;53.104;8.228;2023-08-31T11:58:18;1.33;;;1.10;;
3343;SDS011;1685;53.104;8.228;2023-08-31T12:00:45;2.60;;;1.50;;
3343;SDS011;1685;53.104;8.228;2023-08-31T12:03:21;4.07;;;1.50;;
3343;SDS011;1685;53.104;8.228;2023-08-31T12:05:48;2.63;;;1.20;;
3343;SDS011;1685;53.104;8.228;2023-08-31T12:08:16;1.10;;;1.00;;
3343;SDS011;1685;53.104;8.228;2023-08-31T12:10:51;0.90;;;0.90;;
3343;SDS011;1685;53.104;8.228;2023-08-31T12:13:18;1.30;;;1.00;;
3343;SDS011;1685;53.104;8.228;2023-08-31T12:15:45;1.97;;;0.93;;
3343;SDS011;1685;53.104;8.228;2023-08-31T12:18:13;2.23;;;1.10;;
3343;SDS011;1685;53.104;8.228;2023-08-31T12:20:43;3.00;;;1.23;;
3343;SDS011;1685;53.104;8.228;2023-08-31T12:23:11;1.33;;;1.17;;
3343;SDS011;1685;53.104;8.228;2023-08-31T12:25:44;2.70;;;0.90;;
3343;SDS011;1685;53.104;8.228;2023-08-31T12:28:13;1.63;;;0.87;;
3343;SDS011;1685;53.104;8.228;2023-08-31T12:30:41;5.40;;;3.03;;
3343;SDS011;1685;53.104;8.228;2023-08-31T12:33:11;2.40;;;0.80;;
3343;SDS011;1685;53.104;8.228;2023-08-31T12:35:38;2.07;;;1.00;;
3343;SDS011;1685;53.104;8.228;2023-08-31T12:38:05;1.17;;;1.10;;
3343;SDS011;1685;53.104;8.228;2023-08-31T12:40:33;0.90;;;0.90;;
3343;SDS011;1685;53.104;8.228;2023-08-31T12:43:00;1.07;;;1.00;;
3343;SDS011;1685;53.104;8.228;2023-08-31T12:45:28;2.40;;;0.93;;
3343;SDS011;1685;53.104;8.228;2023-08-31T12:47:55;2.50;;;1.10;;
3343;SDS011;1685;53.104;8.228;2023-08-31T12:50:22;2.10;;;1.00;;
3343;SDS011;1685;53.104;8.228;2023-08-31T12:52:49;1.20;;;0.73;;
3343;SDS011;1685;53.104;8.228;2023-08-31T12:55:16;8.27;;;1.57;;
3343;SDS011;1685;53.104;8.228;2023-08-31T12:57:44;2.30;;;1.00;;
3343;SDS011;1685;53.104;8.228;2023-08-31T13:00:12;2.93;;;1.30;;
3343;SDS011;1685;53.104;8.228;2023-08-31T13:02:42;4.33;;;1.20;;
3343;SDS011;1685;53.104;8.228;2023-08-31T13:05:10;1.50;;;1.20;;
3343;SDS011;1685;53.104;8.228;2023-08-31T13:07:37;2.37;;;1.07;;
3343;SDS011;1685;53.104;8.228;2023-08-31T13:10:04;3.80;;;1.37;;
3343;SDS011;1685;53.104;8.228;2023-08-31T13:12:32;3.60;;;1.50;;
3343;SDS011;1685;53.104;8.228;2023-08-31T13:14:59;12.87;;;2.30;;
3343;SDS011;1685;53.104;8.228;2023-08-31T13:17:27;3.73;;;1.67;;
3343;SDS011;1685;53.104;8.228;2023-08-31T13:19:56;7.77;;;2.07;;
3343;SDS011;1685;53.104;8.228;2023-08-31T13:22:23;3.50;;;2.20;;
3343;SDS011;1685;53.104;8.228;2023-08-31T13:24:51;3.33;;;1.80;;
3343;SDS011;1685;53.104;8.228;2023-08-31T13:27:18;6.00;;;2.30;;
3343;SDS011;1685;53.104;8.228;2023-08-31T13:29:45;2.10;;;1.90;;
3343;SDS011;1685;53.104;8.228;2023-08-31T13:32:12;3.10;;;2.60;;
3343;SDS011;1685;53.104;8.228;2023-08-31T13:34:39;4.23;;;2.63;;
3343;SDS011;1685;53.104;8.228;2023-08-31T13:37:07;1.73;;;1.63;;
3343;SDS011;1685;53.104;8.228;2023-08-31T13:39:35;1.60;;;1.50;;
3343;SDS011;1685;53.104;8.228;2023-08-31T13:42:05;2.40;;;2.30;;
3343;SDS011;1685;53.104;8.228;2023-08-31T13:44:32;4.10;;;1.77;;
3343;SDS011;1685;53.104;8.228;2023-08-31T13:47:00;1.83;;;1.60;;
3343;SDS011;1685;53.104;8.228;2023-08-31T13:49:28;2.10;;;1.37;;
3343;SDS011;1685;53.104;8.228;2023-08-31T13:51:55;4.10;;;1.63;;
3343;SDS011;1685;53.104;8.228;2023-08-31T13:54:24;1.60;;;1.40;;
3343;SDS011;1685;53.104;8.228;2023-08-31T13:56:50;4.10;;;1.23;;
3343;SDS011;1685;53.104;8.228;2023-08-31T13:59:18;1.60;;;1.20;;
3343;SDS011;1685;53.104;8.228;2023-08-31T14:01:45;1.63;;;1.30;;
3343;SDS011;1685;53.104;8.228;2023-08-31T14:04:12;1.40;;;1.27;;
3343;SDS011;1685;53.104;8.228;2023-08-31T14:06:39;1.40;;;1.30;;
3343;SDS011;1685;53.104;8.228;2023-08-31T14:09:06;2.97;;;1.60;;
3343;SDS011;1685;53.104;8.228;2023-08-31T14:11:35;1.40;;;1.17;;
3343;SDS011;1685;53.104;8.228;2023-08-31T14:14:02;5.03;;;1.67;;
3343;SDS011;1685;53.104;8.228;2023-08-31T14:16:31;5.40;;;1.50;;
3343;SDS011;1685;53.104;8.228;2023-08-31T14:18:58;1.97;;;1.70;;
3343;SDS011;1685;53.104;8.228;2023-08-31T14:21:25;6.03;;;1.93;;
3343;SDS011;1685;53.104;8.228;2023-08-31T14:23:52;2.33;;;1.50;;
3343;SDS011;1685;53.104;8.228;2023-08-31T14:26:20;2.30;;;2.00;;
3343;SDS011;1685;53.104;8.228;2023-08-31T14:28:50;4.60;;;2.50;;
3343;SDS011;1685;53.104;8.228;2023-08-31T14:31:17;3.60;;;2.10;;
3343;SDS011;1685;53.104;8.228;2023-08-31T14:33:44;2.07;;;1.60;;
3343;SDS011;1685;53.104;8.228;2023-08-31T14:36:11;5.67;;;1.57;;
3343;SDS011;1685;53.104;8.228;2023-08-31T14:38:38;1.63;;;1.53;;
3343;SDS011;1685;53.104;8.228;2023-08-31T14:41:05;1.90;;;1.70;;
3343;SDS011;1685;53.104;8.228;2023-08-31T14:43:32;1.67;;;1.57;;
3343;SDS011;1685;53.104;8.228;2023-08-31T14:46:01;1.47;;;1.37;;
3343;SDS011;1685;53.104;8.228;2023-08-31T14:48:28;2.30;;;1.60;;
3343;SDS011;1685;53.104;8.228;2023-08-31T14:50:57;6.20;;;1.70;;
3343;SDS011;1685;53.104;8.228;2023-08-31T14:53:25;1.60;;;1.50;;
3343;SDS011;1685;53.104;8.228;2023-08-31T14:55:52;1.80;;;1.63;;
3343;SDS011;1685;53.104;8.228;2023-08-31T14:58:19;2.13;;;1.43;;
3343;SDS011;1685;53.104;8.228;2023-08-31T15:00:46;1.87;;;1.43;;
3343;SDS011;1685;53.104;8.228;2023-08-31T15:03:15;1.50;;;1.40;;
3343;SDS011;1685;53.104;8.228;2023-08-31T15:05:42;1.63;;;1.30;;
3343;SDS011;1685;53.104;8.228;2023-08-31T15:08:09;4.20;;;1.40;;
3343;SDS011;1685;53.104;8.228;2023-08-31T15:10:37;1.77;;;1.23;;
3343;SDS011;1685;53.104;8.228;2023-08-31T15:13:05;4.33;;;1.80;;
3343;SDS011;1685;53.104;8.228;2023-08-31T15:15:32;2.07;;;1.50;;
3343;SDS011;1685;53.104;8.228;2023-08-31T15:17:59;4.70;;;1.43;;